sensor_id;sensor_type;location;lat;lon;timestamp;temperature;humidity
41116;DHT22;26861;51.824;4.682;2023-07-31T00:00:43;21.70;59.90
41116;DHT22;26861;51.824;4.682;2023-07-31T00:03:09;21.70;60.00
41116;DHT22;26861;51.824;4.682;2023-07-31T00:05:35;21.70;59.90
41116;DHT22;26861;51.824;4.682;2023-07-31T00:08:01;21.70;60.00
41116;DHT22;26861;51.824;4.682;2023-07-31T00:10:27;21.70;59.90
41116;DHT22;26861;51.824;4.682;2023-07-31T00:12:52;21.70;60.00
41116;DHT22;26861;51.824;4.682;2023-07-31T00:15:18;21.70;60.00
41116;DHT22;26861;51.824;4.682;2023-07-31T00:17:43;21.70;60.10
41116;DHT22;26861;51.824;4.682;2023-07-31T00:20:09;21.70;60.00
41116;DHT22;26861;51.824;4.682;2023-07-31T00:22:36;21.70;60.10
41116;DHT22;26861;51.824;4.682;2023-07-31T00:25:01;21.70;60.10
41116;DHT22;26861;51.824;4.682;2023-07-31T00:27:27;21.70;60.10
41116;DHT22;26861;51.824;4.682;2023-07-31T00:29:53;21.70;81.80
41116;DHT22;26861;51.824;4.682;2023-07-31T00:32:19;21.70;60.20
41116;DHT22;26861;51.824;4.682;2023-07-31T00:34:45;21.70;60.20
41116;DHT22;26861;51.824;4.682;2023-07-31T00:37:11;21.70;60.20
41116;DHT22;26861;51.824;4.682;2023-07-31T00:39:37;21.70;61.00
41116;DHT22;26861;51.824;4.682;2023-07-31T00:42:04;21.70;60.40
41116;DHT22;26861;51.824;4.682;2023-07-31T00:44:30;21.70;60.40
41116;DHT22;26861;51.824;4.682;2023-07-31T00:46:56;21.70;61.10
41116;DHT22;26861;51.824;4.682;2023-07-31T00:49:25;21.70;60.40
41116;DHT22;26861;51.824;4.682;2023-07-31T00:51:52;21.70;60.50
41116;DHT22;26861;51.824;4.682;2023-07-31T00:54:18;21.60;60.40
41116;DHT22;26861;51.824;4.682;2023-07-31T00:56:46;21.60;60.40
41116;DHT22;26861;51.824;4.682;2023-07-31T00:59:14;21.60;61.20
41116;DHT22;26861;51.824;4.682;2023-07-31T01:01:40;21.70;60.60
41116;DHT22;26861;51.824;4.682;2023-07-31T01:04:07;21.60;60.40
41116;DHT22;26861;51.824;4.682;2023-07-31T01:06:38;21.60;60.50
41116;DHT22;26861;51.824;4.682;2023-07-31T01:09:44;21.60;60.70
41116;DHT22;26861;51.824;4.682;2023-07-31T01:12:15;21.60;60.40
41116;DHT22;26861;51.824;4.682;2023-07-31T01:15:09;21.60;60.70
41116;DHT22;26861;51.824;4.682;2023-07-31T01:17:39;21.60;60.50
41116;DHT22;26861;51.824;4.682;2023-07-31T01:20:17;21.60;60.60
41116;DHT22;26861;51.824;4.682;2023-07-31T01:27:53;21.60;61.50
41116;DHT22;26861;51.824;4.682;2023-07-31T01:30:25;21.60;60.80
41116;DHT22;26861;51.824;4.682;2023-07-31T01:32:54;21.60;60.70
41116;DHT22;26861;51.824;4.682;2023-07-31T01:35:22;21.60;60.80
41116;DHT22;26861;51.824;4.682;2023-07-31T01:37:48;21.60;60.80
41116;DHT22;26861;51.824;4.682;2023-07-31T01:40:14;21.60;60.80
41116;DHT22;26861;51.824;4.682;2023-07-31T01:42:40;21.60;60.90
41116;DHT22;26861;51.824;4.682;2023-07-31T01:45:06;21.60;60.80
41116;DHT22;26861;51.824;4.682;2023-07-31T01:47:33;21.60;60.90
41116;DHT22;26861;51.824;4.682;2023-07-31T01:49:59;21.60;60.80
41116;DHT22;26861;51.824;4.682;2023-07-31T01:52:25;21.60;60.80
41116;DHT22;26861;51.824;4.682;2023-07-31T01:54:52;21.60;60.90
41116;DHT22;26861;51.824;4.682;2023-07-31T01:57:18;21.60;60.90
41116;DHT22;26861;51.824;4.682;2023-07-31T01:59:44;21.60;60.90
41116;DHT22;26861;51.824;4.682;2023-07-31T02:02:10;21.50;60.90
41116;DHT22;26861;51.824;4.682;2023-07-31T02:04:36;21.50;60.90
41116;DHT22;26861;51.824;4.682;2023-07-31T02:07:04;21.50;61.00
41116;DHT22;26861;51.824;4.682;2023-07-31T02:09:29;21.50;60.90
41116;DHT22;26861;51.824;4.682;2023-07-31T02:11:55;21.50;61.10
41116;DHT22;26861;51.824;4.682;2023-07-31T02:14:20;21.50;61.00
41116;DHT22;26861;51.824;4.682;2023-07-31T02:16:46;21.50;61.00
41116;DHT22;26861;51.824;4.682;2023-07-31T02:19:12;21.50;61.00
41116;DHT22;26861;51.824;4.682;2023-07-31T02:21:37;21.50;61.00
41116;DHT22;26861;51.824;4.682;2023-07-31T02:24:03;21.50;61.00
41116;DHT22;26861;51.824;4.682;2023-07-31T02:26:29;21.50;61.00
41116;DHT22;26861;51.824;4.682;2023-07-31T02:28:54;21.50;61.10
41116;DHT22;26861;51.824;4.682;2023-07-31T02:31:20;21.50;61.10
41116;DHT22;26861;51.824;4.682;2023-07-31T02:33:45;21.50;61.20
41116;DHT22;26861;51.824;4.682;2023-07-31T02:36:11;21.50;61.20
41116;DHT22;26861;51.824;4.682;2023-07-31T02:38:37;21.50;61.10
41116;DHT22;26861;51.824;4.682;2023-07-31T02:41:02;21.50;61.10
41116;DHT22;26861;51.824;4.682;2023-07-31T02:43:28;21.50;61.00
41116;DHT22;26861;51.824;4.682;2023-07-31T02:45:53;22.60;61.70
41116;DHT22;26861;51.824;4.682;2023-07-31T02:48:19;21.40;61.00
41116;DHT22;26861;51.824;4.682;2023-07-31T02:50:47;21.50;61.10
41116;DHT22;26861;51.824;4.682;2023-07-31T02:53:12;21.40;61.10
41116;DHT22;26861;51.824;4.682;2023-07-31T02:55:38;21.40;61.00
41116;DHT22;26861;51.824;4.682;2023-07-31T02:58:04;21.50;61.10
41116;DHT22;26861;51.824;4.682;2023-07-31T03:00:30;21.40;61.10
41116;DHT22;26861;51.824;4.682;2023-07-31T03:02:55;21.40;61.10
41116;DHT22;26861;51.824;4.682;2023-07-31T03:05:21;21.40;61.10
41116;DHT22;26861;51.824;4.682;2023-07-31T03:07:46;21.40;61.00
41116;DHT22;26861;51.824;4.682;2023-07-31T03:10:12;21.40;61.00
41116;DHT22;26861;51.824;4.682;2023-07-31T03:12:39;21.40;61.10
41116;DHT22;26861;51.824;4.682;2023-07-31T03:15:06;21.40;61.10
41116;DHT22;26861;51.824;4.682;2023-07-31T03:17:32;21.40;61.10
41116;DHT22;26861;51.824;4.682;2023-07-31T03:19:58;21.40;61.20
41116;DHT22;26861;51.824;4.682;2023-07-31T03:22:24;21.40;61.20
41116;DHT22;26861;51.824;4.682;2023-07-31T03:24:50;21.40;61.20
41116;DHT22;26861;51.824;4.682;2023-07-31T03:27:15;21.40;61.20
41116;DHT22;26861;51.824;4.682;2023-07-31T03:29:41;21.40;61.10
41116;DHT22;26861;51.824;4.682;2023-07-31T03:32:07;21.40;61.10
41116;DHT22;26861;51.824;4.682;2023-07-31T03:34:32;21.40;61.20
41116;DHT22;26861;51.824;4.682;2023-07-31T03:36:59;21.30;61.20
41116;DHT22;26861;51.824;4.682;2023-07-31T03:39:24;21.40;61.30
41116;DHT22;26861;51.824;4.682;2023-07-31T03:41:50;21.30;61.20
41116;DHT22;26861;51.824;4.682;2023-07-31T03:44:16;20.40;60.70
41116;DHT22;26861;51.824;4.682;2023-07-31T03:46:41;21.30;61.20
41116;DHT22;26861;51.824;4.682;2023-07-31T03:49:07;21.30;61.20
41116;DHT22;26861;51.824;4.682;2023-07-31T03:51:33;21.30;61.20
41116;DHT22;26861;51.824;4.682;2023-07-31T03:53:58;21.30;61.20
41116;DHT22;26861;51.824;4.682;2023-07-31T03:56:24;21.30;61.10
41116;DHT22;26861;51.824;4.682;2023-07-31T03:58:49;21.30;61.40
41116;DHT22;26861;51.824;4.682;2023-07-31T04:07:13;21.30;61.20
41116;DHT22;26861;51.824;4.682;2023-07-31T04:09:38;21.30;61.20
41116;DHT22;26861;51.824;4.682;2023-07-31T04:12:04;21.30;61.20
41116;DHT22;26861;51.824;4.682;2023-07-31T04:14:30;21.30;61.30
41116;DHT22;26861;51.824;4.682;2023-07-31T04:16:55;21.30;61.30
41116;DHT22;26861;51.824;4.682;2023-07-31T04:19:21;21.30;61.40
41116;DHT22;26861;51.824;4.682;2023-07-31T04:21:47;21.30;61.40
41116;DHT22;26861;51.824;4.682;2023-07-31T04:24:13;21.30;61.30
41116;DHT22;26861;51.824;4.682;2023-07-31T04:26:39;21.30;61.20
41116;DHT22;26861;51.824;4.682;2023-07-31T04:29:05;21.30;61.40
41116;DHT22;26861;51.824;4.682;2023-07-31T04:31:31;21.30;61.40
41116;DHT22;26861;51.824;4.682;2023-07-31T04:33:57;21.30;61.40
41116;DHT22;26861;51.824;4.682;2023-07-31T04:36:23;21.20;61.40
41116;DHT22;26861;51.824;4.682;2023-07-31T04:38:48;21.20;61.40
41116;DHT22;26861;51.824;4.682;2023-07-31T04:41:14;21.30;61.40
41116;DHT22;26861;51.824;4.682;2023-07-31T04:43:40;21.20;61.30
41116;DHT22;26861;51.824;4.682;2023-07-31T04:46:06;21.20;61.30
41116;DHT22;26861;51.824;4.682;2023-07-31T04:48:31;21.20;61.40
41116;DHT22;26861;51.824;4.682;2023-07-31T04:50:57;21.20;61.40
41116;DHT22;26861;51.824;4.682;2023-07-31T04:53:24;21.20;61.40
41116;DHT22;26861;51.824;4.682;2023-07-31T04:55:50;21.20;61.30
41116;DHT22;26861;51.824;4.682;2023-07-31T04:58:16;21.20;61.40
41116;DHT22;26861;51.824;4.682;2023-07-31T05:00:42;21.20;61.40
41116;DHT22;26861;51.824;4.682;2023-07-31T05:03:08;21.20;61.40
41116;DHT22;26861;51.824;4.682;2023-07-31T05:05:36;21.20;61.40
41116;DHT22;26861;51.824;4.682;2023-07-31T05:08:02;21.20;61.40
41116;DHT22;26861;51.824;4.682;2023-07-31T05:10:28;21.20;61.40
41116;DHT22;26861;51.824;4.682;2023-07-31T05:12:54;21.20;61.40
41116;DHT22;26861;51.824;4.682;2023-07-31T05:15:21;21.20;61.50
41116;DHT22;26861;51.824;4.682;2023-07-31T05:17:46;21.20;61.60
41116;DHT22;26861;51.824;4.682;2023-07-31T05:20:12;21.20;61.40
41116;DHT22;26861;51.824;4.682;2023-07-31T05:22:38;21.20;61.40
41116;DHT22;26861;51.824;4.682;2023-07-31T05:25:04;21.80;61.80
41116;DHT22;26861;51.824;4.682;2023-07-31T05:27:29;21.10;61.50
41116;DHT22;26861;51.824;4.682;2023-07-31T05:29:55;21.20;61.50
41116;DHT22;26861;51.824;4.682;2023-07-31T05:32:21;21.20;61.60
41116;DHT22;26861;51.824;4.682;2023-07-31T05:34:47;21.20;61.70
41116;DHT22;26861;51.824;4.682;2023-07-31T05:37:13;21.10;61.50
41116;DHT22;26861;51.824;4.682;2023-07-31T05:39:40;21.10;61.50
41116;DHT22;26861;51.824;4.682;2023-07-31T05:42:06;21.10;61.50
41116;DHT22;26861;51.824;4.682;2023-07-31T05:44:32;21.10;61.70
41116;DHT22;26861;51.824;4.682;2023-07-31T05:46:57;21.10;61.60
41116;DHT22;26861;51.824;4.682;2023-07-31T05:49:23;21.10;61.60
41116;DHT22;26861;51.824;4.682;2023-07-31T05:51:49;21.10;61.60
41116;DHT22;26861;51.824;4.682;2023-07-31T05:54:14;21.10;61.80
41116;DHT22;26861;51.824;4.682;2023-07-31T05:56:40;21.10;61.70
41116;DHT22;26861;51.824;4.682;2023-07-31T05:59:05;21.10;61.80
41116;DHT22;26861;51.824;4.682;2023-07-31T06:01:31;21.10;82.60
41116;DHT22;26861;51.824;4.682;2023-07-31T06:03:57;21.10;61.90
41116;DHT22;26861;51.824;4.682;2023-07-31T06:06:23;21.10;61.90
41116;DHT22;26861;51.824;4.682;2023-07-31T06:08:49;21.10;61.80
41116;DHT22;26861;51.824;4.682;2023-07-31T06:11:15;21.10;61.80
41116;DHT22;26861;51.824;4.682;2023-07-31T06:13:41;21.10;61.80
41116;DHT22;26861;51.824;4.682;2023-07-31T06:16:10;21.10;61.70
41116;DHT22;26861;51.824;4.682;2023-07-31T06:18:36;21.10;61.80
41116;DHT22;26861;51.824;4.682;2023-07-31T06:21:02;21.10;61.80
41116;DHT22;26861;51.824;4.682;2023-07-31T06:23:29;21.10;62.00
41116;DHT22;26861;51.824;4.682;2023-07-31T06:25:54;21.10;61.90
41116;DHT22;26861;51.824;4.682;2023-07-31T06:28:20;21.10;61.90
41116;DHT22;26861;51.824;4.682;2023-07-31T06:30:46;21.10;62.00
41116;DHT22;26861;51.824;4.682;2023-07-31T06:33:12;21.10;62.00
41116;DHT22;26861;51.824;4.682;2023-07-31T06:35:38;21.10;62.00
41116;DHT22;26861;51.824;4.682;2023-07-31T06:38:04;21.10;61.90
41116;DHT22;26861;51.824;4.682;2023-07-31T06:40:30;21.10;62.10
41116;DHT22;26861;51.824;4.682;2023-07-31T06:42:56;21.00;62.00
41116;DHT22;26861;51.824;4.682;2023-07-31T06:45:22;21.10;62.20
41116;DHT22;26861;51.824;4.682;2023-07-31T06:47:48;21.10;62.30
41116;DHT22;26861;51.824;4.682;2023-07-31T06:50:14;21.10;62.10
41116;DHT22;26861;51.824;4.682;2023-07-31T06:52:40;21.10;62.20
41116;DHT22;26861;51.824;4.682;2023-07-31T06:55:21;21.00;62.20
41116;DHT22;26861;51.824;4.682;2023-07-31T06:57:52;21.10;62.30
41116;DHT22;26861;51.824;4.682;2023-07-31T07:00:19;21.00;62.10
41116;DHT22;26861;51.824;4.682;2023-07-31T07:02:45;21.10;62.40
41116;DHT22;26861;51.824;4.682;2023-07-31T07:05:16;21.00;62.10
41116;DHT22;26861;51.824;4.682;2023-07-31T07:07:43;21.00;62.30
41116;DHT22;26861;51.824;4.682;2023-07-31T07:10:09;21.00;62.30
41116;DHT22;26861;51.824;4.682;2023-07-31T07:12:35;21.00;62.50
41116;DHT22;26861;51.824;4.682;2023-07-31T07:15:02;21.00;62.50
41116;DHT22;26861;51.824;4.682;2023-07-31T07:17:29;21.00;62.50
41116;DHT22;26861;51.824;4.682;2023-07-31T07:19:57;21.10;62.40
41116;DHT22;26861;51.824;4.682;2023-07-31T07:22:23;21.00;62.50
41116;DHT22;26861;51.824;4.682;2023-07-31T07:24:50;21.00;62.60
41116;DHT22;26861;51.824;4.682;2023-07-31T07:27:16;21.00;62.60
41116;DHT22;26861;51.824;4.682;2023-07-31T07:29:42;21.00;62.60
41116;DHT22;26861;51.824;4.682;2023-07-31T07:32:08;21.10;62.70
41116;DHT22;26861;51.824;4.682;2023-07-31T07:34:34;21.10;62.60
41116;DHT22;26861;51.824;4.682;2023-07-31T07:37:01;21.10;62.70
41116;DHT22;26861;51.824;4.682;2023-07-31T07:39:27;21.10;62.80
41116;DHT22;26861;51.824;4.682;2023-07-31T07:41:53;21.00;62.60
41116;DHT22;26861;51.824;4.682;2023-07-31T07:44:20;21.10;62.80
41116;DHT22;26861;51.824;4.682;2023-07-31T07:46:46;21.10;62.90
41116;DHT22;26861;51.824;4.682;2023-07-31T07:49:12;21.10;62.90
41116;DHT22;26861;51.824;4.682;2023-07-31T07:51:38;21.00;63.60
41116;DHT22;26861;51.824;4.682;2023-07-31T07:54:04;21.00;62.90
41116;DHT22;26861;51.824;4.682;2023-07-31T07:56:30;21.20;83.40
41116;DHT22;26861;51.824;4.682;2023-07-31T07:58:56;21.00;63.00
41116;DHT22;26861;51.824;4.682;2023-07-31T08:01:22;20.90;83.50
41116;DHT22;26861;51.824;4.682;2023-07-31T08:03:48;21.00;63.10
41116;DHT22;26861;51.824;4.682;2023-07-31T08:06:14;21.00;63.80
41116;DHT22;26861;51.824;4.682;2023-07-31T08:08:40;21.00;63.10
41116;DHT22;26861;51.824;4.682;2023-07-31T08:11:05;21.10;63.20
41116;DHT22;26861;51.824;4.682;2023-07-31T08:13:31;21.00;63.10
41116;DHT22;26861;51.824;4.682;2023-07-31T08:15:57;21.10;63.20
41116;DHT22;26861;51.824;4.682;2023-07-31T08:18:23;21.10;63.30
41116;DHT22;26861;51.824;4.682;2023-07-31T08:20:48;21.10;63.30
41116;DHT22;26861;51.824;4.682;2023-07-31T08:23:14;21.40;63.50
41116;DHT22;26861;51.824;4.682;2023-07-31T08:25:40;21.10;63.40
41116;DHT22;26861;51.824;4.682;2023-07-31T08:28:06;21.00;63.40
41116;DHT22;26861;51.824;4.682;2023-07-31T08:30:32;21.00;63.40
41116;DHT22;26861;51.824;4.682;2023-07-31T08:32:59;21.00;63.50
41116;DHT22;26861;51.824;4.682;2023-07-31T08:35:25;21.00;63.50
41116;DHT22;26861;51.824;4.682;2023-07-31T08:37:51;21.00;64.10
41116;DHT22;26861;51.824;4.682;2023-07-31T08:40:17;21.00;63.50
41116;DHT22;26861;51.824;4.682;2023-07-31T08:42:46;21.00;63.50
41116;DHT22;26861;51.824;4.682;2023-07-31T08:45:19;21.00;63.50
41116;DHT22;26861;51.824;4.682;2023-07-31T08:47:49;21.00;63.50
41116;DHT22;26861;51.824;4.682;2023-07-31T08:50:16;21.00;63.60
41116;DHT22;26861;51.824;4.682;2023-07-31T08:52:42;21.00;63.50
41116;DHT22;26861;51.824;4.682;2023-07-31T08:55:09;21.00;63.80
41116;DHT22;26861;51.824;4.682;2023-07-31T08:57:36;21.00;63.70
41116;DHT22;26861;51.824;4.682;2023-07-31T09:00:04;21.00;63.80
41116;DHT22;26861;51.824;4.682;2023-07-31T09:03:02;21.00;63.80
41116;DHT22;26861;51.824;4.682;2023-07-31T09:05:30;21.00;63.70
41116;DHT22;26861;51.824;4.682;2023-07-31T09:07:56;21.00;63.80
41116;DHT22;26861;51.824;4.682;2023-07-31T09:10:23;21.00;63.80
41116;DHT22;26861;51.824;4.682;2023-07-31T09:12:51;21.10;63.90
41116;DHT22;26861;51.824;4.682;2023-07-31T09:15:18;21.10;63.90
41116;DHT22;26861;51.824;4.682;2023-07-31T09:17:44;21.00;63.80
41116;DHT22;26861;51.824;4.682;2023-07-31T09:20:18;21.00;63.90
41116;DHT22;26861;51.824;4.682;2023-07-31T09:22:45;21.10;64.10
41116;DHT22;26861;51.824;4.682;2023-07-31T09:25:15;21.00;64.00
41116;DHT22;26861;51.824;4.682;2023-07-31T09:28:03;21.10;64.00
41116;DHT22;26861;51.824;4.682;2023-07-31T09:30:29;21.10;64.00
41116;DHT22;26861;51.824;4.682;2023-07-31T09:33:04;21.10;64.20
41116;DHT22;26861;51.824;4.682;2023-07-31T09:35:33;21.10;64.20
41116;DHT22;26861;51.824;4.682;2023-07-31T09:38:05;21.10;64.20
41116;DHT22;26861;51.824;4.682;2023-07-31T09:40:35;21.10;64.20
41116;DHT22;26861;51.824;4.682;2023-07-31T09:43:03;21.10;64.30
41116;DHT22;26861;51.824;4.682;2023-07-31T09:45:30;21.10;64.30
41116;DHT22;26861;51.824;4.682;2023-07-31T09:47:56;21.10;64.40
41116;DHT22;26861;51.824;4.682;2023-07-31T09:50:23;21.10;64.40
41116;DHT22;26861;51.824;4.682;2023-07-31T09:52:51;21.10;64.50
41116;DHT22;26861;51.824;4.682;2023-07-31T09:55:18;21.10;64.50
41116;DHT22;26861;51.824;4.682;2023-07-31T09:57:49;21.10;64.50
41116;DHT22;26861;51.824;4.682;2023-07-31T10:00:18;21.10;64.50
41116;DHT22;26861;51.824;4.682;2023-07-31T10:02:46;21.10;64.40
41116;DHT22;26861;51.824;4.682;2023-07-31T10:05:16;21.20;64.60
41116;DHT22;26861;51.824;4.682;2023-07-31T10:07:54;21.20;64.90
41116;DHT22;26861;51.824;4.682;2023-07-31T10:10:21;21.20;64.60
41116;DHT22;26861;51.824;4.682;2023-07-31T10:12:52;21.20;64.60
41116;DHT22;26861;51.824;4.682;2023-07-31T10:15:19;21.20;64.60
41116;DHT22;26861;51.824;4.682;2023-07-31T10:17:49;21.20;64.60
41116;DHT22;26861;51.824;4.682;2023-07-31T10:20:16;21.20;64.70
41116;DHT22;26861;51.824;4.682;2023-07-31T10:22:44;21.20;64.60
41116;DHT22;26861;51.824;4.682;2023-07-31T10:25:12;21.20;64.60
41116;DHT22;26861;51.824;4.682;2023-07-31T10:27:39;21.20;64.80
41116;DHT22;26861;51.824;4.682;2023-07-31T10:30:16;21.20;64.70
41116;DHT22;26861;51.824;4.682;2023-07-31T10:32:44;21.20;64.80
41116;DHT22;26861;51.824;4.682;2023-07-31T10:35:11;21.20;64.80
41116;DHT22;26861;51.824;4.682;2023-07-31T10:37:38;21.20;64.90
41116;DHT22;26861;51.824;4.682;2023-07-31T10:40:07;21.20;64.90
41116;DHT22;26861;51.824;4.682;2023-07-31T10:42:46;21.20;65.00
41116;DHT22;26861;51.824;4.682;2023-07-31T10:45:14;21.30;65.10
41116;DHT22;26861;51.824;4.682;2023-07-31T10:47:44;21.20;65.00
41116;DHT22;26861;51.824;4.682;2023-07-31T10:50:31;21.20;65.10
41116;DHT22;26861;51.824;4.682;2023-07-31T10:53:00;21.20;65.00
41116;DHT22;26861;51.824;4.682;2023-07-31T10:58:09;21.20;65.00
41116;DHT22;26861;51.824;4.682;2023-07-31T11:00:41;21.20;65.00
41116;DHT22;26861;51.824;4.682;2023-07-31T11:03:09;21.30;65.00
41116;DHT22;26861;51.824;4.682;2023-07-31T11:05:43;21.30;65.10
41116;DHT22;26861;51.824;4.682;2023-07-31T11:08:19;21.30;65.10
41116;DHT22;26861;51.824;4.682;2023-07-31T11:10:48;21.30;65.00
41116;DHT22;26861;51.824;4.682;2023-07-31T11:13:14;21.30;65.10
41116;DHT22;26861;51.824;4.682;2023-07-31T11:15:40;21.30;65.00
41116;DHT22;26861;51.824;4.682;2023-07-31T11:18:07;21.30;65.00
41116;DHT22;26861;51.824;4.682;2023-07-31T11:20:35;21.20;65.00
41116;DHT22;26861;51.824;4.682;2023-07-31T11:23:03;21.30;65.00
41116;DHT22;26861;51.824;4.682;2023-07-31T11:25:33;21.30;65.10
41116;DHT22;26861;51.824;4.682;2023-07-31T11:28:07;21.30;65.10
41116;DHT22;26861;51.824;4.682;2023-07-31T11:30:33;21.30;65.10
41116;DHT22;26861;51.824;4.682;2023-07-31T11:33:03;21.30;65.10
41116;DHT22;26861;51.824;4.682;2023-07-31T11:35:36;21.30;65.10
41116;DHT22;26861;51.824;4.682;2023-07-31T11:38:07;21.30;65.10
41116;DHT22;26861;51.824;4.682;2023-07-31T11:40:44;21.30;65.10
41116;DHT22;26861;51.824;4.682;2023-07-31T11:43:10;21.30;65.10
41116;DHT22;26861;51.824;4.682;2023-07-31T11:45:42;21.30;65.10
41116;DHT22;26861;51.824;4.682;2023-07-31T11:48:10;21.30;65.10
41116;DHT22;26861;51.824;4.682;2023-07-31T11:50:44;21.30;65.10
41116;DHT22;26861;51.824;4.682;2023-07-31T11:53:12;21.30;65.10
41116;DHT22;26861;51.824;4.682;2023-07-31T11:55:39;21.30;65.10
41116;DHT22;26861;51.824;4.682;2023-07-31T11:58:05;21.30;65.10
41116;DHT22;26861;51.824;4.682;2023-07-31T12:00:32;21.30;65.10
41116;DHT22;26861;51.824;4.682;2023-07-31T12:02:58;21.30;65.10
41116;DHT22;26861;51.824;4.682;2023-07-31T12:05:24;21.30;65.10
41116;DHT22;26861;51.824;4.682;2023-07-31T12:07:51;21.30;65.00
41116;DHT22;26861;51.824;4.682;2023-07-31T12:10:30;21.30;65.10
41116;DHT22;26861;51.824;4.682;2023-07-31T12:13:08;21.30;65.10
41116;DHT22;26861;51.824;4.682;2023-07-31T12:15:43;21.30;65.10
41116;DHT22;26861;51.824;4.682;2023-07-31T12:18:19;21.30;65.20
41116;DHT22;26861;51.824;4.682;2023-07-31T12:20:49;21.30;65.20
41116;DHT22;26861;51.824;4.682;2023-07-31T12:23:21;21.30;65.10
41116;DHT22;26861;51.824;4.682;2023-07-31T12:26:11;21.30;65.30
41116;DHT22;26861;51.824;4.682;2023-07-31T12:28:42;21.40;65.40
41116;DHT22;26861;51.824;4.682;2023-07-31T12:31:28;21.30;65.30
41116;DHT22;26861;51.824;4.682;2023-07-31T12:33:55;21.30;65.40
41116;DHT22;26861;51.824;4.682;2023-07-31T12:36:23;21.30;65.40
41116;DHT22;26861;51.824;4.682;2023-07-31T12:38:50;21.30;65.40
41116;DHT22;26861;51.824;4.682;2023-07-31T12:41:16;21.30;65.50
41116;DHT22;26861;51.824;4.682;2023-07-31T12:43:44;21.30;65.50
41116;DHT22;26861;51.824;4.682;2023-07-31T12:46:10;21.30;66.20
41116;DHT22;26861;51.824;4.682;2023-07-31T12:48:38;21.30;65.50
41116;DHT22;26861;51.824;4.682;2023-07-31T12:51:04;21.40;65.50
41116;DHT22;26861;51.824;4.682;2023-07-31T12:53:30;21.30;65.50
41116;DHT22;26861;51.824;4.682;2023-07-31T12:55:57;21.40;65.60
41116;DHT22;26861;51.824;4.682;2023-07-31T12:58:23;21.40;65.60
41116;DHT22;26861;51.824;4.682;2023-07-31T13:00:50;21.40;65.60
41116;DHT22;26861;51.824;4.682;2023-07-31T13:03:16;21.40;65.60
41116;DHT22;26861;51.824;4.682;2023-07-31T13:05:42;21.40;65.60
41116;DHT22;26861;51.824;4.682;2023-07-31T13:08:08;21.40;65.60
41116;DHT22;26861;51.824;4.682;2023-07-31T13:10:33;21.40;65.50
41116;DHT22;26861;51.824;4.682;2023-07-31T13:12:59;21.40;65.50
41116;DHT22;26861;51.824;4.682;2023-07-31T13:15:25;21.40;65.60
41116;DHT22;26861;51.824;4.682;2023-07-31T13:17:50;21.40;65.50
41116;DHT22;26861;51.824;4.682;2023-07-31T13:20:16;21.40;65.70
41116;DHT22;26861;51.824;4.682;2023-07-31T13:22:44;21.40;65.80
41116;DHT22;26861;51.824;4.682;2023-07-31T13:25:10;21.40;65.80
41116;DHT22;26861;51.824;4.682;2023-07-31T13:27:36;21.50;65.90
41116;DHT22;26861;51.824;4.682;2023-07-31T13:30:02;21.40;65.80
41116;DHT22;26861;51.824;4.682;2023-07-31T13:32:29;21.40;65.90
41116;DHT22;26861;51.824;4.682;2023-07-31T13:34:55;21.40;65.80
41116;DHT22;26861;51.824;4.682;2023-07-31T13:37:21;21.40;66.00
41116;DHT22;26861;51.824;4.682;2023-07-31T13:39:47;21.50;66.00
41116;DHT22;26861;51.824;4.682;2023-07-31T13:42:14;21.50;65.90
41116;DHT22;26861;51.824;4.682;2023-07-31T13:44:40;21.40;65.90
41116;DHT22;26861;51.824;4.682;2023-07-31T13:47:08;21.40;66.10
41116;DHT22;26861;51.824;4.682;2023-07-31T13:49:35;21.50;66.30
41116;DHT22;26861;51.824;4.682;2023-07-31T13:52:01;21.50;66.00
41116;DHT22;26861;51.824;4.682;2023-07-31T13:54:28;21.40;66.20
41116;DHT22;26861;51.824;4.682;2023-07-31T13:56:54;21.50;66.30
41116;DHT22;26861;51.824;4.682;2023-07-31T13:59:20;21.50;66.30
41116;DHT22;26861;51.824;4.682;2023-07-31T14:01:46;21.50;66.30
41116;DHT22;26861;51.824;4.682;2023-07-31T14:04:13;21.50;66.40
41116;DHT22;26861;51.824;4.682;2023-07-31T14:06:40;21.50;66.40
41116;DHT22;26861;51.824;4.682;2023-07-31T14:09:06;21.50;66.40
41116;DHT22;26861;51.824;4.682;2023-07-31T14:11:32;21.50;66.30
41116;DHT22;26861;51.824;4.682;2023-07-31T14:13:58;21.50;66.20
41116;DHT22;26861;51.824;4.682;2023-07-31T14:16:25;21.50;66.30
41116;DHT22;26861;51.824;4.682;2023-07-31T14:18:50;21.50;66.40
41116;DHT22;26861;51.824;4.682;2023-07-31T14:21:16;21.50;66.60
41116;DHT22;26861;51.824;4.682;2023-07-31T14:23:45;21.50;66.40
41116;DHT22;26861;51.824;4.682;2023-07-31T14:26:11;21.50;66.40
41116;DHT22;26861;51.824;4.682;2023-07-31T14:28:37;21.50;66.50
41116;DHT22;26861;51.824;4.682;2023-07-31T14:31:04;21.50;66.70
41116;DHT22;26861;51.824;4.682;2023-07-31T14:33:30;21.50;88.40
41116;DHT22;26861;51.824;4.682;2023-07-31T14:35:56;21.60;66.60
41116;DHT22;26861;51.824;4.682;2023-07-31T14:38:22;21.50;66.80
41116;DHT22;26861;51.824;4.682;2023-07-31T14:40:47;21.50;66.70
41116;DHT22;26861;51.824;4.682;2023-07-31T14:43:14;21.50;66.70
41116;DHT22;26861;51.824;4.682;2023-07-31T14:45:40;21.50;66.80
41116;DHT22;26861;51.824;4.682;2023-07-31T14:48:06;21.50;66.90
41116;DHT22;26861;51.824;4.682;2023-07-31T14:50:31;21.50;66.80
41116;DHT22;26861;51.824;4.682;2023-07-31T14:52:57;21.50;66.90
41116;DHT22;26861;51.824;4.682;2023-07-31T14:55:23;21.50;66.80
41116;DHT22;26861;51.824;4.682;2023-07-31T14:57:49;21.50;66.80
41116;DHT22;26861;51.824;4.682;2023-07-31T15:00:15;21.50;66.80
41116;DHT22;26861;51.824;4.682;2023-07-31T15:02:41;21.50;66.80
41116;DHT22;26861;51.824;4.682;2023-07-31T15:05:08;21.50;66.80
41116;DHT22;26861;51.824;4.682;2023-07-31T15:07:34;21.50;66.90
41116;DHT22;26861;51.824;4.682;2023-07-31T15:10:03;21.50;66.80
41116;DHT22;26861;51.824;4.682;2023-07-31T15:12:30;21.50;66.80
41116;DHT22;26861;51.824;4.682;2023-07-31T15:14:56;21.50;66.90
41116;DHT22;26861;51.824;4.682;2023-07-31T15:17:22;21.50;66.80
41116;DHT22;26861;51.824;4.682;2023-07-31T15:19:48;21.50;66.80
41116;DHT22;26861;51.824;4.682;2023-07-31T15:22:14;21.50;67.60
41116;DHT22;26861;51.824;4.682;2023-07-31T15:24:40;21.50;66.80
41116;DHT22;26861;51.824;4.682;2023-07-31T15:27:06;21.50;66.90
41116;DHT22;26861;51.824;4.682;2023-07-31T15:29:33;21.50;66.90
41116;DHT22;26861;51.824;4.682;2023-07-31T15:32:05;21.50;67.10
41116;DHT22;26861;51.824;4.682;2023-07-31T15:34:31;21.50;66.90
41116;DHT22;26861;51.824;4.682;2023-07-31T15:36:57;21.50;67.10
41116;DHT22;26861;51.824;4.682;2023-07-31T15:39:23;21.50;67.00
41116;DHT22;26861;51.824;4.682;2023-07-31T15:41:49;21.50;66.90
41116;DHT22;26861;51.824;4.682;2023-07-31T15:44:15;21.50;66.70